createdAt,value
2018-06-11T00:01:30.051Z,8.85
2018-06-11T00:04:05.616Z,9.45
2018-06-11T00:06:41.185Z,8.45
2018-06-11T00:09:16.771Z,7.90
2018-06-11T00:11:52.405Z,8.68
2018-06-11T00:14:28.116Z,8.23
2018-06-11T00:17:03.604Z,8.70
2018-06-11T00:19:39.005Z,8.13
2018-06-11T00:22:14.564Z,8.60
2018-06-11T00:24:50.112Z,7.55
2018-06-11T00:27:25.694Z,7.22
2018-06-11T00:30:01.277Z,7.05
2018-06-11T00:32:36.867Z,8.15
2018-06-11T00:35:12.443Z,7.90
2018-06-11T00:37:47.903Z,8.63
2018-06-11T00:40:23.560Z,8.35
2018-06-11T00:42:58.953Z,8.65
2018-06-11T00:45:34.450Z,8.95
2018-06-11T00:48:10.038Z,10.60
2018-06-11T00:50:45.575Z,10.10
2018-06-11T00:53:21.242Z,9.30
2018-06-11T00:56:06.001Z,8.25
2018-06-11T00:58:41.547Z,8.55
2018-06-11T01:01:17.088Z,9.23
2018-06-11T01:03:52.667Z,7.67
2018-06-11T01:06:28.325Z,7.33
2018-06-11T01:09:04.042Z,7.67
2018-06-11T01:11:39.593Z,7.75
2018-06-11T01:14:15.248Z,7.12
2018-06-11T01:16:50.807Z,7.58
2018-06-11T01:19:26.273Z,7.60
2018-06-11T01:22:01.906Z,7.60
2018-06-11T01:24:37.480Z,7.50
2018-06-11T01:27:13.033Z,6.50
2018-06-11T01:29:48.695Z,6.95
2018-06-11T01:32:24.367Z,6.47
2018-06-11T01:34:59.803Z,6.42
2018-06-11T01:37:35.442Z,7.37
2018-06-11T01:40:11.105Z,6.45
2018-06-11T01:42:46.723Z,6.58
2018-06-11T01:45:22.404Z,7.00
2018-06-11T01:47:57.883Z,5.95
2018-06-11T01:50:33.323Z,6.62
2018-06-11T01:53:08.759Z,5.92
2018-06-11T01:55:44.319Z,6.55
2018-06-11T01:58:19.915Z,6.45
2018-06-11T02:00:55.612Z,5.75
2018-06-11T02:03:31.249Z,5.10
2018-06-11T02:06:06.869Z,5.42
2018-06-11T02:08:42.556Z,7.40
2018-06-11T02:11:18.016Z,5.87
2018-06-11T02:13:53.678Z,6.83
2018-06-11T02:16:29.360Z,6.45
2018-06-11T02:19:04.943Z,6.62
2018-06-11T02:21:40.425Z,6.15
2018-06-11T02:24:16.049Z,6.33
2018-06-11T02:26:51.623Z,6.17
2018-06-11T02:29:27.134Z,5.40
2018-06-11T02:32:03.009Z,6.30
2018-06-11T02:34:38.610Z,6.30
2018-06-11T02:37:14.036Z,6.40
2018-06-11T02:39:49.751Z,6.87
2018-06-11T02:42:25.204Z,6.87
2018-06-11T02:45:00.673Z,6.37
2018-06-11T02:47:36.361Z,6.75
2018-06-11T02:50:11.756Z,5.33
2018-06-11T02:52:47.160Z,7.42
2018-06-11T02:55:22.700Z,6.25
2018-06-11T02:57:58.256Z,5.80
2018-06-11T03:00:33.763Z,5.95
2018-06-11T03:03:09.231Z,7.37
2018-06-11T03:05:44.960Z,5.67
2018-06-11T03:08:20.410Z,5.90
2018-06-11T03:10:56.012Z,6.25
2018-06-11T03:13:31.454Z,5.65
2018-06-11T03:16:07.096Z,7.28
2018-06-11T03:18:42.606Z,6.08
2018-06-11T03:21:18.119Z,7.08
2018-06-11T03:23:53.603Z,6.37
2018-06-11T03:26:29.201Z,7.53
2018-06-11T03:29:04.787Z,6.58
2018-06-11T03:31:40.284Z,6.15
2018-06-11T03:34:15.699Z,7.45
2018-06-11T03:36:51.140Z,6.17
2018-06-11T03:39:26.572Z,6.62
2018-06-11T03:42:01.870Z,7.58
2018-06-11T03:44:37.203Z,6.40
2018-06-11T03:47:12.782Z,6.12
2018-06-11T03:49:48.300Z,6.22
2018-06-11T03:52:23.821Z,7.03
2018-06-11T03:54:59.363Z,6.55
2018-06-11T03:57:34.847Z,7.08
2018-06-11T04:00:10.383Z,6.10
2018-06-11T04:02:46.028Z,6.35
2018-06-11T04:05:21.490Z,6.97
2018-06-11T04:07:57.123Z,7.03
2018-06-11T04:10:32.685Z,7.10
2018-06-11T04:13:08.228Z,6.50
2018-06-11T04:15:43.608Z,6.30
2018-06-11T04:18:19.220Z,5.47
2018-06-11T04:20:54.770Z,5.33
2018-06-11T04:23:30.407Z,5.10
2018-06-11T04:26:05.904Z,4.20
2018-06-11T04:28:41.917Z,3.65
2018-06-11T04:31:17.316Z,4.45
2018-06-11T04:33:52.776Z,4.50
2018-06-11T04:36:28.326Z,4.12
2018-06-11T04:39:04.697Z,3.90
2018-06-11T04:41:40.136Z,3.37
2018-06-11T04:44:16.706Z,3.90
2018-06-11T04:46:52.265Z,3.80
2018-06-11T04:49:27.746Z,3.42
2018-06-11T04:52:03.244Z,3.35
2018-06-11T04:54:38.808Z,3.35
2018-06-11T04:57:14.292Z,3.08
2018-06-11T04:59:49.804Z,3.10
2018-06-11T05:02:25.400Z,3.50
2018-06-11T05:05:00.893Z,2.95
2018-06-11T05:07:36.429Z,3.60
2018-06-11T05:10:12.010Z,3.30
2018-06-11T05:12:47.452Z,3.58
2018-06-11T05:15:23.090Z,2.80
2018-06-11T05:17:58.677Z,3.20
2018-06-11T05:20:34.355Z,3.15
2018-06-11T05:23:09.805Z,2.60
2018-06-11T05:25:45.257Z,3.52
2018-06-11T05:28:20.883Z,3.37
2018-06-11T05:30:56.389Z,3.12
2018-06-11T05:33:31.893Z,3.20
2018-06-11T05:36:07.655Z,3.27
2018-06-11T05:38:43.224Z,3.25
2018-06-11T05:41:18.707Z,2.98
2018-06-11T05:43:54.371Z,2.98
2018-06-11T05:46:29.775Z,3.25
2018-06-11T05:49:05.288Z,2.95
2018-06-11T05:51:40.792Z,3.00
2018-06-11T05:54:16.325Z,3.20
2018-06-11T05:56:52.009Z,2.72
2018-06-11T05:59:27.506Z,3.00
2018-06-11T06:02:03.007Z,3.10
2018-06-11T06:04:38.498Z,3.20
2018-06-11T06:07:14.012Z,3.10
2018-06-11T06:09:49.591Z,2.97
2018-06-11T06:12:25.280Z,3.60
2018-06-11T06:15:00.804Z,2.77
2018-06-11T06:17:36.328Z,4.77
2018-06-11T06:20:11.780Z,3.40
2018-06-11T06:22:47.576Z,3.33
2018-06-11T06:25:23.060Z,2.60
2018-06-11T06:27:58.533Z,3.87
2018-06-11T06:30:34.131Z,3.50
2018-06-11T06:33:09.707Z,3.70
2018-06-11T06:35:45.314Z,3.33
2018-06-11T06:38:21.001Z,4.47
2018-06-11T06:40:56.674Z,4.15
2018-06-11T06:43:32.092Z,3.93
2018-06-11T06:46:07.872Z,3.47
2018-06-11T06:48:43.616Z,3.70
2018-06-11T06:51:19.193Z,3.40
2018-06-11T06:53:54.837Z,3.70
2018-06-11T06:56:30.301Z,3.80
2018-06-11T06:59:05.896Z,3.10
2018-06-11T07:01:41.486Z,3.90
2018-06-11T07:04:17.140Z,3.20
2018-06-11T07:06:54.238Z,3.07
2018-06-11T07:09:29.861Z,3.73
2018-06-11T07:12:05.467Z,4.30
2018-06-11T07:14:41.100Z,4.40
2018-06-11T07:17:16.697Z,3.93
2018-06-11T07:19:52.262Z,4.97
2018-06-11T07:22:27.708Z,4.73
2018-06-11T07:25:03.257Z,3.70
2018-06-11T07:27:38.789Z,3.53
2018-06-11T07:30:14.344Z,4.30
2018-06-11T07:32:49.928Z,3.83
2018-06-11T07:35:26.416Z,4.73
2018-06-11T07:38:01.868Z,3.53
2018-06-11T07:40:37.361Z,3.70
2018-06-11T07:43:12.795Z,3.57
2018-06-11T07:45:48.320Z,3.57
2018-06-11T07:48:23.801Z,3.80
2018-06-11T07:50:59.570Z,3.23
2018-06-11T07:53:34.985Z,2.80
2018-06-11T07:56:10.593Z,2.97
2018-06-11T07:58:46.190Z,3.13
2018-06-11T08:01:23.387Z,3.40
2018-06-11T08:03:59.097Z,3.10
2018-06-11T08:06:34.597Z,2.80
2018-06-11T08:09:10.075Z,4.30
2018-06-11T08:11:45.784Z,3.53
2018-06-11T08:14:21.733Z,3.40
2018-06-11T08:16:57.529Z,3.77
2018-06-11T08:19:33.120Z,4.00
2018-06-11T08:22:08.633Z,3.33
2018-06-11T08:24:44.112Z,3.10
2018-06-11T08:27:19.811Z,4.00
2018-06-11T08:29:55.308Z,4.10
2018-06-11T08:32:30.763Z,3.40
2018-06-11T08:35:06.337Z,3.93
2018-06-11T08:37:42.091Z,4.53
2018-06-11T08:40:17.736Z,3.63
2018-06-11T08:42:53.303Z,4.13
2018-06-11T08:45:28.825Z,4.17
2018-06-11T08:48:04.575Z,4.70
2018-06-11T08:50:40.040Z,4.57
2018-06-11T08:53:15.587Z,3.93
2018-06-11T08:55:51.110Z,4.20
2018-06-11T08:58:26.664Z,4.07
2018-06-11T09:01:02.290Z,3.53
2018-06-11T09:03:37.844Z,3.40
2018-06-11T09:06:13.593Z,3.80
2018-06-11T09:08:49.177Z,3.37
2018-06-11T09:11:24.992Z,3.70
2018-06-11T09:14:00.459Z,3.70
2018-06-11T09:16:35.917Z,3.83
2018-06-11T09:19:11.440Z,3.90
2018-06-11T09:21:46.905Z,3.67
2018-06-11T09:24:22.540Z,4.30
2018-06-11T09:26:58.033Z,3.83
2018-06-11T09:29:33.546Z,3.63
2018-06-11T09:32:09.028Z,4.10
2018-06-11T09:34:44.605Z,3.63
2018-06-11T09:37:20.204Z,3.53
2018-06-11T09:39:55.757Z,3.70
2018-06-11T09:42:31.451Z,3.83
2018-06-11T09:45:06.929Z,3.70
2018-06-11T09:47:42.510Z,3.70
2018-06-11T09:50:18.070Z,3.13
2018-06-11T09:52:53.481Z,3.23
2018-06-11T09:55:28.949Z,3.57
2018-06-11T09:58:04.495Z,4.03
2018-06-11T10:00:40.167Z,3.60
2018-06-11T10:03:15.689Z,3.10
2018-06-11T10:05:51.333Z,3.60
2018-06-11T10:08:26.954Z,3.10
2018-06-11T10:11:02.424Z,3.20
2018-06-11T10:13:38.033Z,3.27
2018-06-11T10:16:13.631Z,3.27
2018-06-11T10:18:49.245Z,3.37
2018-06-11T10:21:24.735Z,3.67
2018-06-11T10:24:00.249Z,4.00
2018-06-11T10:26:35.967Z,2.70
2018-06-11T10:29:11.563Z,3.10
2018-06-11T10:31:47.032Z,3.20
2018-06-11T10:34:22.557Z,3.50
2018-06-11T10:36:58.189Z,3.30
2018-06-11T10:39:33.683Z,3.10
2018-06-11T10:42:09.330Z,4.27
2018-06-11T10:44:44.956Z,3.20
2018-06-11T10:47:20.524Z,3.43
2018-06-11T10:49:56.179Z,3.63
2018-06-11T10:52:31.738Z,3.17
2018-06-11T10:55:07.312Z,3.10
2018-06-11T10:57:42.924Z,3.80
2018-06-11T11:00:18.332Z,3.43
2018-06-11T11:02:53.870Z,3.30
2018-06-11T11:05:29.529Z,3.43
2018-06-11T11:08:05.204Z,3.60
2018-06-11T11:10:40.809Z,3.70
2018-06-11T11:13:31.671Z,3.47
2018-06-11T11:16:07.133Z,4.40
2018-06-11T11:18:42.773Z,3.63
2018-06-11T11:21:18.492Z,3.63
2018-06-11T11:23:54.159Z,4.23
2018-06-11T11:26:29.845Z,4.00
2018-06-11T11:29:05.725Z,4.43
2018-06-11T11:31:41.253Z,3.20
2018-06-11T11:34:16.815Z,4.03
2018-06-11T11:36:52.244Z,3.30
2018-06-11T11:39:27.917Z,3.50
2018-06-11T11:42:03.585Z,3.90
2018-06-11T11:44:39.070Z,5.30
2018-06-11T11:47:14.773Z,3.60
2018-06-11T11:49:50.383Z,3.90
2018-06-11T11:52:25.814Z,4.03
2018-06-11T11:55:01.269Z,3.47
2018-06-11T11:57:36.815Z,4.27
2018-06-11T12:00:12.394Z,3.87
2018-06-11T12:02:47.869Z,3.60
2018-06-11T12:05:23.484Z,3.90
2018-06-11T12:07:58.903Z,3.50
2018-06-11T12:10:34.536Z,3.90
2018-06-11T12:13:10.053Z,4.30
2018-06-11T12:15:45.682Z,4.20
2018-06-11T12:18:21.221Z,3.90
2018-06-11T12:20:56.700Z,4.40
2018-06-11T12:23:32.344Z,4.10
2018-06-11T12:26:07.957Z,3.70
2018-06-11T12:28:43.487Z,4.13
2018-06-11T12:31:19.191Z,4.20
2018-06-11T12:33:54.641Z,3.40
2018-06-11T12:36:30.145Z,4.70
2018-06-11T12:39:07.876Z,5.10
2018-06-11T12:41:43.384Z,4.60
2018-06-11T12:44:19.040Z,4.47
2018-06-11T12:46:54.705Z,3.90
2018-06-11T12:49:30.189Z,3.50
2018-06-11T12:52:05.888Z,3.80
2018-06-11T12:54:41.501Z,4.20
2018-06-11T12:57:16.992Z,3.80
2018-06-11T12:59:52.475Z,4.03
2018-06-11T13:02:27.940Z,3.83
2018-06-11T13:05:03.585Z,4.27
2018-06-11T13:07:39.125Z,4.47
2018-06-11T13:10:14.588Z,5.40
2018-06-11T13:12:50.235Z,5.80
2018-06-11T13:15:25.847Z,5.10
2018-06-11T13:18:01.850Z,4.20
2018-06-11T13:20:37.557Z,4.07
2018-06-11T13:23:13.264Z,4.67
2018-06-11T13:25:48.765Z,4.20
2018-06-11T13:28:24.402Z,3.67
2018-06-11T13:30:59.957Z,4.50
2018-06-11T13:33:35.661Z,3.80
2018-06-11T13:36:11.388Z,3.67
2018-06-11T13:38:47.013Z,4.37
2018-06-11T13:41:22.485Z,4.00
2018-06-11T13:43:58.120Z,4.40
2018-06-11T13:46:33.676Z,3.90
2018-06-11T13:49:09.163Z,3.77
2018-06-11T13:51:44.820Z,3.40
2018-06-11T13:54:20.477Z,3.53
2018-06-11T13:56:55.952Z,4.40
2018-06-11T13:59:31.425Z,4.03
2018-06-11T14:02:07.117Z,4.07
2018-06-11T14:04:42.589Z,4.37
2018-06-11T14:07:18.195Z,4.40
2018-06-11T14:09:53.849Z,3.90
2018-06-11T14:12:29.367Z,3.80
2018-06-11T14:15:05.008Z,4.23
2018-06-11T14:17:40.519Z,4.73
2018-06-11T14:20:16.143Z,4.17
2018-06-11T14:22:51.648Z,4.57
2018-06-11T14:25:27.148Z,4.10
2018-06-11T14:28:02.731Z,5.07
2018-06-11T14:30:38.104Z,4.43
2018-06-11T14:33:13.589Z,3.37
2018-06-11T14:35:49.081Z,3.90
2018-06-11T14:38:24.638Z,3.80
2018-06-11T14:41:00.228Z,3.70
2018-06-11T14:43:35.644Z,4.57
2018-06-11T14:46:11.196Z,4.20
2018-06-11T14:48:46.629Z,4.70
2018-06-11T14:51:22.191Z,4.67
2018-06-11T14:53:57.785Z,7.30
2018-06-11T14:56:33.600Z,4.23
2018-06-11T14:59:09.036Z,4.40
2018-06-11T15:01:44.653Z,4.50
2018-06-11T15:04:20.104Z,8.53
2018-06-11T15:06:55.728Z,5.00
2018-06-11T15:09:31.364Z,4.70
2018-06-11T15:12:07.009Z,3.80
2018-06-11T15:14:42.552Z,4.30
2018-06-11T15:17:18.192Z,3.93
2018-06-11T15:19:53.741Z,5.37
2018-06-11T15:22:29.308Z,9.47
2018-06-11T15:25:04.772Z,4.37
2018-06-11T15:27:40.309Z,4.20
2018-06-11T15:30:15.958Z,4.10
2018-06-11T15:32:51.581Z,3.50
2018-06-11T15:35:27.728Z,4.00
2018-06-11T15:38:05.119Z,4.23
2018-06-11T15:40:40.660Z,3.60
2018-06-11T15:43:16.233Z,4.03
2018-06-11T15:45:52.246Z,6.60
2018-06-11T15:48:27.908Z,4.00
2018-06-11T15:51:03.481Z,3.53
2018-06-11T15:53:38.913Z,3.90
2018-06-11T15:56:14.329Z,3.43
2018-06-11T15:58:49.853Z,3.30
2018-06-11T16:01:25.428Z,3.80
2018-06-11T16:04:01.051Z,4.67
2018-06-11T16:06:36.796Z,4.37
2018-06-11T16:09:12.259Z,3.90
2018-06-11T16:11:47.748Z,7.70
2018-06-11T16:14:23.334Z,5.90
2018-06-11T16:16:58.716Z,4.20
2018-06-11T16:19:34.442Z,5.17
2018-06-11T16:22:09.916Z,4.50
2018-06-11T16:24:45.655Z,5.10
2018-06-11T16:27:21.357Z,4.70
2018-06-11T16:29:57.008Z,6.27
2018-06-11T16:32:32.596Z,5.77
2018-06-11T16:35:08.210Z,4.37
2018-06-11T16:37:43.765Z,4.80
2018-06-11T16:40:19.296Z,4.27
2018-06-11T16:42:54.845Z,4.77
2018-06-11T16:45:30.336Z,4.40
2018-06-11T16:48:06.056Z,4.90
2018-06-11T16:50:41.533Z,4.03
2018-06-11T16:53:17.153Z,4.03
2018-06-11T16:55:52.605Z,4.70
2018-06-11T16:58:28.100Z,4.70
2018-06-11T17:01:03.632Z,4.50
2018-06-11T17:03:39.298Z,4.03
2018-06-11T17:06:15.909Z,4.40
2018-06-11T17:08:51.320Z,4.80
2018-06-11T17:11:27.465Z,4.20
2018-06-11T17:14:02.951Z,4.47
2018-06-11T17:16:38.556Z,5.67
2018-06-11T17:19:20.416Z,4.60
2018-06-11T17:22:00.664Z,4.90
2018-06-11T17:24:40.339Z,4.13
2018-06-11T17:27:18.671Z,4.20
2018-06-11T17:30:03.155Z,3.77
2018-06-11T17:32:45.486Z,3.17
2018-06-11T17:35:39.535Z,4.70
2018-06-11T17:38:15.356Z,3.53
2018-06-11T17:40:58.748Z,3.40
2018-06-11T17:43:44.826Z,4.40
2018-06-11T17:46:21.993Z,3.53
2018-06-11T17:48:58.397Z,3.37
2018-06-11T17:51:34.118Z,3.30
2018-06-11T17:54:09.920Z,3.43
2018-06-11T17:56:45.581Z,3.50
2018-06-11T17:59:21.070Z,4.93
2018-06-11T18:01:56.538Z,4.27
2018-06-11T18:04:32.185Z,4.50
2018-06-11T18:07:07.847Z,5.20
2018-06-11T18:09:43.982Z,4.50
2018-06-11T18:12:20.237Z,3.33
2018-06-11T18:14:56.402Z,3.40
2018-06-11T18:17:32.947Z,3.92
2018-06-11T18:20:09.697Z,4.50
2018-06-11T18:22:46.140Z,4.45
2018-06-11T18:25:22.922Z,4.17
2018-06-11T18:27:59.629Z,3.85
2018-06-11T18:30:36.500Z,4.30
2018-06-11T18:33:13.274Z,5.15
2018-06-11T18:35:49.995Z,4.37
2018-06-11T18:38:26.947Z,5.08
2018-06-11T18:41:04.591Z,4.10
2018-06-11T18:43:41.421Z,3.70
2018-06-11T18:46:18.499Z,3.85
2018-06-11T18:48:56.046Z,3.30
2018-06-11T18:51:33.779Z,5.10
2018-06-11T18:54:10.450Z,3.80
2018-06-11T18:56:48.081Z,4.03
2018-06-11T18:59:25.008Z,4.30
2018-06-11T19:02:02.045Z,4.33
2018-06-11T19:04:38.837Z,3.47
2018-06-11T19:07:15.778Z,3.70
2018-06-11T19:09:52.580Z,3.75
2018-06-11T19:12:30.313Z,3.75
2018-06-11T19:15:07.089Z,4.40
2018-06-11T19:17:46.991Z,4.62
2018-06-11T19:20:24.312Z,4.00
2018-06-11T19:23:02.922Z,4.45
2018-06-11T19:25:39.789Z,5.08
2018-06-11T19:28:16.596Z,3.70
2018-06-11T19:30:53.476Z,4.40
2018-06-11T19:33:30.368Z,4.45
2018-06-11T19:36:08.427Z,4.22
2018-06-11T19:38:46.283Z,4.85
2018-06-11T19:41:23.770Z,4.87
2018-06-11T19:44:00.726Z,4.97
2018-06-11T19:46:37.630Z,4.35
2018-06-11T19:49:14.746Z,4.75
2018-06-11T19:51:51.566Z,5.28
2018-06-11T19:54:28.896Z,4.67
2018-06-11T19:57:07.644Z,5.20
2018-06-11T19:59:45.179Z,5.12
2018-06-11T20:02:22.799Z,4.17
2018-06-11T20:04:59.744Z,4.45
2018-06-11T20:07:37.768Z,3.62
2018-06-11T20:10:13.971Z,3.35
2018-06-11T20:12:50.686Z,4.62
2018-06-11T20:15:27.653Z,4.15
2018-06-11T20:18:04.328Z,4.90
2018-06-11T20:20:41.206Z,3.62
2018-06-11T20:23:17.990Z,3.47
2018-06-11T20:25:54.954Z,3.98
2018-06-11T20:28:31.692Z,4.03
2018-06-11T20:31:09.437Z,3.40
2018-06-11T20:33:46.189Z,3.20
2018-06-11T20:36:22.936Z,3.75
2018-06-11T20:38:59.775Z,3.47
2018-06-11T20:41:35.512Z,2.87
2018-06-11T20:44:10.999Z,3.12
2018-06-11T20:46:46.677Z,2.72
2018-06-11T20:49:22.188Z,2.98
2018-06-11T20:51:57.727Z,2.37
2018-06-11T20:54:33.121Z,2.90
2018-06-11T20:57:08.708Z,2.15
2018-06-11T20:59:44.143Z,2.10
2018-06-11T21:02:19.765Z,2.00
2018-06-11T21:04:55.403Z,2.75
2018-06-11T21:07:30.929Z,2.55
2018-06-11T21:10:06.539Z,2.27
2018-06-11T21:12:42.053Z,2.27
2018-06-11T21:15:17.739Z,2.65
2018-06-11T21:17:53.305Z,2.02
2018-06-11T21:20:28.935Z,2.35
2018-06-11T21:23:04.907Z,2.30
2018-06-11T21:25:40.548Z,2.12
2018-06-11T21:28:16.293Z,3.72
2018-06-11T21:30:52.075Z,2.70
2018-06-11T21:33:27.616Z,2.27
2018-06-11T21:36:03.567Z,3.35
2018-06-11T21:38:39.994Z,2.33
2018-06-11T21:41:15.615Z,2.72
2018-06-11T21:43:51.258Z,2.30
2018-06-11T21:46:26.808Z,2.25
2018-06-11T21:49:03.331Z,1.90
2018-06-11T21:51:38.990Z,1.70
2018-06-11T21:54:14.503Z,3.00
2018-06-11T21:56:49.919Z,2.30
2018-06-11T21:59:25.587Z,2.42
2018-06-11T22:02:01.161Z,2.65
2018-06-11T22:04:36.868Z,2.30
2018-06-11T22:07:12.337Z,2.30
2018-06-11T22:09:48.077Z,2.50
2018-06-11T22:12:23.641Z,2.60
2018-06-11T22:14:59.231Z,2.20
2018-06-11T22:17:34.859Z,2.83
2018-06-11T22:20:10.373Z,2.45
2018-06-11T22:22:45.850Z,2.02
2018-06-11T22:25:21.544Z,2.52
2018-06-11T22:28:04.996Z,2.25
2018-06-11T22:30:40.835Z,2.30
2018-06-11T22:33:18.493Z,2.55
2018-06-11T22:35:54.476Z,2.58
2018-06-11T22:38:30.731Z,2.25
2018-06-11T22:41:06.283Z,2.65
2018-06-11T22:43:42.116Z,2.35
2018-06-11T22:46:17.756Z,2.15
2018-06-11T22:48:53.461Z,2.00
2018-06-11T22:51:29.719Z,2.15
2018-06-11T22:54:05.796Z,1.95
2018-06-11T22:56:41.375Z,2.00
2018-06-11T22:59:17.008Z,2.52
2018-06-11T23:01:52.703Z,2.10
2018-06-11T23:04:28.306Z,1.85
2018-06-11T23:07:04.057Z,2.87
2018-06-11T23:09:39.674Z,2.00
2018-06-11T23:12:15.196Z,3.27
2018-06-11T23:14:50.768Z,1.98
2018-06-11T23:17:26.500Z,2.20
2018-06-11T23:20:02.019Z,1.90
2018-06-11T23:22:37.571Z,1.90
2018-06-11T23:25:13.151Z,1.80
2018-06-11T23:27:48.604Z,2.30
2018-06-11T23:30:24.136Z,2.42
2018-06-11T23:32:59.545Z,1.62
2018-06-11T23:35:35.093Z,2.15
2018-06-11T23:38:10.593Z,1.75
2018-06-11T23:40:46.053Z,2.15
2018-06-11T23:43:44.192Z,1.92
2018-06-11T23:46:42.423Z,2.08
2018-06-11T23:49:40.897Z,1.90
2018-06-11T23:52:22.520Z,2.15
2018-06-11T23:54:58.225Z,2.27
2018-06-11T23:57:33.768Z,2.55
